createdAt,value
2023-03-18T00:00:22.451Z,100262.13
2023-03-18T00:02:58.386Z,100255.84
2023-03-18T00:05:41.764Z,100250.53
2023-03-18T00:08:31.758Z,100248.28
2023-03-18T00:11:08.774Z,100248.13
2023-03-18T00:13:48.122Z,100251.50
2023-03-18T00:16:31.970Z,100247.03
2023-03-18T00:19:09.478Z,100254.19
2023-03-18T00:21:53.430Z,100254.72
2023-03-18T00:24:42.692Z,100248.28
2023-03-18T00:27:19.600Z,100248.41
2023-03-18T00:30:06.177Z,100243.94
2023-03-18T00:32:47.428Z,100240.31
2023-03-18T00:35:21.633Z,100244.38
2023-03-18T00:38:15.846Z,100242.97
2023-03-18T00:41:11.751Z,100239.59
2023-03-18T00:43:59.641Z,100228.72
2023-03-18T00:46:47.029Z,100236.69
2023-03-18T00:49:32.310Z,100232.63
2023-03-18T00:52:19.770Z,100232.22
2023-03-18T00:55:08.304Z,100228.84
2023-03-18T00:58:00.528Z,100218.06
2023-03-18T01:00:39.007Z,100216.81
2023-03-18T01:03:20.768Z,100227.25
2023-03-18T01:05:58.684Z,100222.66
2023-03-18T01:08:32.259Z,100211.44
2023-03-18T01:11:20.425Z,100212.16
2023-03-18T01:14:04.798Z,100213.00
2023-03-18T01:16:43.022Z,100213.56
2023-03-18T01:19:26.255Z,100211.06
2023-03-18T01:22:05.130Z,100217.50
2023-03-18T01:24:50.818Z,100212.19
2023-03-18T01:27:37.653Z,100203.81
2023-03-18T01:30:22.010Z,100204.78
2023-03-18T01:33:13.237Z,100198.63
2023-03-18T01:36:00.008Z,100190.22
2023-03-18T01:38:43.702Z,100188.69
2023-03-18T01:41:22.300Z,100189.81
2023-03-18T01:44:05.400Z,100188.28
2023-03-18T01:46:47.586Z,100185.22
2023-03-18T01:49:29.074Z,100186.88
2023-03-18T01:52:38.711Z,100177.13
2023-03-18T01:55:38.760Z,100178.53
2023-03-18T01:58:36.045Z,100176.28
2023-03-18T02:01:33.889Z,100169.00
2023-03-18T02:04:18.886Z,100167.88
2023-03-18T02:06:59.680Z,100169.00
2023-03-18T02:09:41.025Z,100164.81
2023-03-18T02:12:35.363Z,100163.00
2023-03-18T02:15:23.688Z,100163.44
2023-03-18T02:18:09.063Z,100151.69
2023-03-18T02:21:18.856Z,100150.31
2023-03-18T02:24:24.625Z,100154.63
2023-03-18T02:27:13.193Z,100144.16
2023-03-18T02:29:58.396Z,100146.38
2023-03-18T02:32:42.921Z,100149.72
2023-03-18T02:35:22.150Z,100144.41
2023-03-18T02:38:07.991Z,100159.50
2023-03-18T02:40:52.843Z,100140.78
2023-03-18T02:43:36.853Z,100147.34
2023-03-18T02:46:39.675Z,100153.06
2023-03-18T02:49:24.685Z,100158.53
2023-03-18T02:52:10.070Z,100162.44
2023-03-18T02:54:49.987Z,100155.44
2023-03-18T02:57:27.798Z,100159.09
2023-03-18T03:00:15.134Z,100162.03
2023-03-18T03:03:00.374Z,100162.84
2023-03-18T03:05:42.416Z,100160.34
2023-03-18T03:08:19.875Z,100161.47
2023-03-18T03:10:59.388Z,100164.81
2023-03-18T03:13:37.537Z,100164.81
2023-03-18T03:16:17.087Z,100165.66
2023-03-18T03:18:59.805Z,100172.66
2023-03-18T03:21:52.127Z,100177.38
2023-03-18T03:24:30.675Z,100172.34
2023-03-18T03:27:15.863Z,100182.66
2023-03-18T03:30:04.413Z,100184.59
2023-03-18T03:32:42.268Z,100182.75
2023-03-18T03:35:24.414Z,100177.56
2023-03-18T03:38:16.256Z,100191.47
2023-03-18T03:40:53.981Z,100187.66
2023-03-18T03:43:34.790Z,100188.75
2023-03-18T03:46:25.491Z,100188.75
2023-03-18T03:49:09.975Z,100190.75
2023-03-18T03:51:42.633Z,100197.91
2023-03-18T03:54:20.503Z,100194.09
2023-03-18T03:57:07.970Z,100199.63
2023-03-18T03:59:54.217Z,100204.84
2023-03-18T04:02:53.205Z,100203.03
2023-03-18T04:05:34.042Z,100204.28
2023-03-18T04:08:14.371Z,100203.56
2023-03-18T04:10:59.363Z,100200.47
2023-03-18T04:13:40.317Z,100201.06
2023-03-18T04:16:26.270Z,100203.88
2023-03-18T04:19:07.052Z,100200.13
2023-03-18T04:21:55.177Z,100207.91
2023-03-18T04:24:36.741Z,100209.69
2023-03-18T04:27:23.666Z,100218.81
2023-03-18T04:30:11.687Z,100225.22
2023-03-18T04:33:02.186Z,100231.94
2023-03-18T04:35:43.012Z,100229.53
2023-03-18T04:38:28.550Z,100230.63
2023-03-18T04:41:12.055Z,100230.06
2023-03-18T04:43:57.848Z,100228.13
2023-03-18T04:46:48.325Z,100232.53
2023-03-18T04:49:43.629Z,100227.31
2023-03-18T04:52:33.154Z,100225.03
2023-03-18T04:55:17.006Z,100230.72
2023-03-18T04:57:57.777Z,100226.88
2023-03-18T05:00:44.213Z,100237.44
2023-03-18T05:03:40.130Z,100233.75
2023-03-18T05:06:37.495Z,100234.59
2023-03-18T05:09:26.961Z,100240.03
2023-03-18T05:12:16.289Z,100242.44
2023-03-18T05:15:00.610Z,100240.41
2023-03-18T05:17:44.578Z,100246.97
2023-03-18T05:20:19.973Z,100251.56
2023-03-18T05:22:56.608Z,100255.53
2023-03-18T05:25:54.062Z,100248.63
2023-03-18T05:28:42.871Z,100249.94
2023-03-18T05:31:32.326Z,100248.13
2023-03-18T05:34:21.722Z,100251.78
2023-03-18T05:37:02.694Z,100247.03
2023-03-18T05:39:47.710Z,100254.31
2023-03-18T05:42:40.611Z,100247.28
2023-03-18T05:45:38.620Z,100245.84
2023-03-18T05:48:17.738Z,100251.25
2023-03-18T05:51:17.582Z,100252.09
2023-03-18T05:54:01.524Z,100252.78
2023-03-18T05:56:52.969Z,100254.81
2023-03-18T05:59:32.216Z,100249.13
2023-03-18T06:02:13.561Z,100267.97
2023-03-18T06:04:58.557Z,100261.41
2023-03-18T06:07:45.847Z,100259.38
2023-03-18T06:10:28.299Z,100262.31
2023-03-18T06:13:16.775Z,100261.41
2023-03-18T06:16:06.797Z,100253.47
2023-03-18T06:18:42.890Z,100257.41
2023-03-18T06:21:31.668Z,100261.25
2023-03-18T06:24:15.841Z,100256.75
2023-03-18T06:27:10.220Z,100268.63
2023-03-18T06:29:56.149Z,100260.19
2023-03-18T06:32:36.937Z,100274.84
2023-03-18T06:35:18.958Z,100276.69
2023-03-18T06:38:13.782Z,100279.56
2023-03-18T06:40:58.113Z,100272.06
2023-03-18T06:43:33.869Z,100276.63
2023-03-18T06:46:19.826Z,100283.56
2023-03-18T06:49:06.914Z,100295.38
2023-03-18T06:51:54.446Z,100293.03
2023-03-18T06:54:43.908Z,100296.28
2023-03-18T06:57:35.435Z,100291.88
2023-03-18T07:00:21.836Z,100300.69
2023-03-18T07:03:03.179Z,100301.69
2023-03-18T07:05:44.822Z,100307.56
2023-03-18T07:08:34.139Z,100299.22
2023-03-18T07:11:21.380Z,100308.91
2023-03-18T07:14:00.385Z,100305.19
2023-03-18T07:16:53.140Z,100305.34
2023-03-18T07:19:42.675Z,100306.56
2023-03-18T07:22:19.804Z,100307.78
2023-03-18T07:25:04.871Z,100308.25
2023-03-18T07:27:40.584Z,100303.78
2023-03-18T07:30:24.296Z,100313.81
2023-03-18T07:33:04.732Z,100315.56
2023-03-18T07:35:58.246Z,100305.34
2023-03-18T07:38:41.065Z,100312.59
2023-03-18T07:41:29.609Z,100317.97
2023-03-18T07:44:07.419Z,100311.69
2023-03-18T07:46:51.167Z,100312.88
2023-03-18T07:49:35.619Z,100315.66
2023-03-18T07:52:13.674Z,100315.00
2023-03-18T07:54:51.422Z,100317.22
2023-03-18T07:57:39.657Z,100323.50
2023-03-18T08:00:26.380Z,100332.03
2023-03-18T08:03:07.378Z,100322.91
2023-03-18T08:05:48.902Z,100316.56
2023-03-18T08:08:36.917Z,100321.69
2023-03-18T08:11:15.482Z,100324.75
2023-03-18T08:13:58.677Z,100326.41
2023-03-18T08:16:49.090Z,100323.81
2023-03-18T08:19:24.927Z,100317.31
2023-03-18T08:22:05.580Z,100317.19
2023-03-18T08:24:45.919Z,100322.00
2023-03-18T08:27:24.628Z,100309.84
2023-03-18T08:30:11.926Z,100307.66
2023-03-18T08:32:58.030Z,100307.06
2023-03-18T08:35:42.681Z,100313.53
2023-03-18T08:38:21.125Z,100312.38
2023-03-18T08:41:04.087Z,100313.81
2023-03-18T08:43:50.572Z,100310.41
2023-03-18T08:46:32.055Z,100305.59
2023-03-18T08:49:21.202Z,100310.50
2023-03-18T08:52:04.562Z,100308.34
2023-03-18T08:54:50.823Z,100302.94
2023-03-18T08:57:39.352Z,100310.63
2023-03-18T09:00:19.704Z,100313.53
2023-03-18T09:03:00.948Z,100302.84
2023-03-18T09:05:53.734Z,100300.56
2023-03-18T09:08:33.212Z,100310.31
2023-03-18T09:11:18.721Z,100310.31
2023-03-18T09:14:00.488Z,100298.25
2023-03-18T09:16:55.878Z,100306.38
2023-03-18T09:19:39.020Z,100298.41
2023-03-18T09:22:14.677Z,100302.41
2023-03-18T09:24:55.950Z,100289.91
2023-03-18T09:27:38.788Z,100300.44
2023-03-18T09:30:25.746Z,100294.75
2023-03-18T09:33:06.090Z,100295.09
2023-03-18T09:35:47.474Z,100287.19
2023-03-18T09:38:32.192Z,100289.88
2023-03-18T09:41:15.763Z,100278.78
2023-03-18T09:44:13.850Z,100283.19
2023-03-18T09:47:06.492Z,100284.19
2023-03-18T09:50:13.674Z,100280.41
2023-03-18T09:53:24.660Z,100275.66
2023-03-18T09:56:16.065Z,100278.28
2023-03-18T09:58:56.904Z,100266.28
2023-03-18T10:01:37.924Z,100264.09
2023-03-18T10:05:01.598Z,100268.16
2023-03-18T10:07:51.834Z,100263.25
2023-03-18T10:10:38.469Z,100271.81
2023-03-18T10:13:32.216Z,100265.06
2023-03-18T10:16:26.882Z,100270.66
2023-03-18T10:19:10.753Z,100259.59
2023-03-18T10:22:09.816Z,100260.44
2023-03-18T10:24:51.047Z,100260.06
2023-03-18T10:28:08.580Z,100250.16
2023-03-18T10:31:32.966Z,100251.72
2023-03-18T10:34:27.428Z,100246.22
2023-03-18T10:37:36.955Z,100247.06
2023-03-18T10:40:38.851Z,100258.91
2023-03-18T10:43:32.808Z,100256.63
2023-03-18T10:46:14.406Z,100254.13
2023-03-18T10:49:15.859Z,100248.16
2023-03-18T10:52:06.080Z,100248.97
2023-03-18T10:54:56.721Z,100248.03
2023-03-18T10:57:32.745Z,100252.09
2023-03-18T11:00:37.004Z,100239.69
2023-03-18T11:03:30.937Z,100234.25
2023-03-18T11:06:28.522Z,100235.78
2023-03-18T11:09:15.024Z,100230.59
2023-03-18T11:12:13.822Z,100228.38
2023-03-18T11:14:55.440Z,100229.09
2023-03-18T11:17:40.753Z,100224.94
2023-03-18T11:20:43.036Z,100213.69
2023-03-18T11:23:54.547Z,100216.25
2023-03-18T11:26:48.799Z,100213.16
2023-03-18T11:29:46.908Z,100214.44
2023-03-18T11:32:49.905Z,100206.31
2023-03-18T11:35:55.835Z,100196.56
2023-03-18T11:38:44.185Z,100189.16
2023-03-18T11:41:48.320Z,100189.97
2023-03-18T11:44:40.584Z,100191.41
2023-03-18T11:47:37.380Z,100194.09
2023-03-18T11:50:30.493Z,100189.94
2023-03-18T11:53:22.002Z,100187.63
2023-03-18T11:56:27.624Z,100180.72
2023-03-18T11:59:33.429Z,100183.44
2023-03-18T12:02:52.978Z,100182.00
2023-03-18T12:06:13.166Z,100177.59
2023-03-18T12:09:08.889Z,100167.97
2023-03-18T12:11:58.719Z,100167.50
2023-03-18T12:15:10.090Z,100162.75
2023-03-18T12:18:41.758Z,100163.13
2023-03-18T12:21:49.807Z,100147.72
2023-03-18T12:24:54.786Z,100149.03
2023-03-18T12:27:55.331Z,100150.31
2023-03-18T12:31:00.412Z,100154.00
2023-03-18T12:33:58.427Z,100150.81
2023-03-18T12:36:54.308Z,100147.53
2023-03-18T12:39:45.934Z,100149.22
2023-03-18T12:43:06.143Z,100153.13
2023-03-18T12:46:13.229Z,100142.34
2023-03-18T12:49:15.282Z,100141.31
2023-03-18T12:51:59.746Z,100146.66
2023-03-18T12:55:11.902Z,100142.38
2023-03-18T12:58:07.198Z,100142.44
2023-03-18T13:01:34.316Z,100146.69
2023-03-18T13:04:29.453Z,100151.41
2023-03-18T13:07:36.370Z,100139.13
2023-03-18T13:10:30.728Z,100145.19
2023-03-18T13:13:22.017Z,100144.53
2023-03-18T13:16:10.754Z,100142.25
2023-03-18T13:19:04.484Z,100140.22
2023-03-18T13:21:53.612Z,100137.81
2023-03-18T13:25:12.319Z,100149.50
2023-03-18T13:28:08.176Z,100140.75
2023-03-18T13:31:05.745Z,100135.69
2023-03-18T13:34:14.085Z,100134.91
2023-03-18T13:37:11.693Z,100134.34
2023-03-18T13:40:13.920Z,100129.25
2023-03-18T13:42:53.617Z,100126.19
2023-03-18T13:45:51.706Z,100131.81
2023-03-18T13:48:51.373Z,100129.97
2023-03-18T13:51:50.778Z,100126.69
2023-03-18T13:54:42.887Z,100112.09
2023-03-18T13:57:40.774Z,100123.06
2023-03-18T14:00:31.748Z,100112.69
2023-03-18T14:03:29.936Z,100122.03
2023-03-18T14:06:33.382Z,100115.25
2023-03-18T14:09:36.421Z,100111.78
2023-03-18T14:12:49.842Z,100108.03
2023-03-18T14:15:51.156Z,100095.88
2023-03-18T14:18:41.863Z,100107.03
2023-03-18T14:21:55.780Z,100095.88
2023-03-18T14:24:50.385Z,100086.63
2023-03-18T14:27:38.754Z,100087.69
2023-03-18T14:30:35.417Z,100089.03
2023-03-18T14:33:33.236Z,100083.44
2023-03-18T14:36:16.809Z,100073.69
2023-03-18T14:39:11.416Z,100072.38
2023-03-18T14:42:15.056Z,100082.75
2023-03-18T14:45:09.515Z,100071.06
2023-03-18T14:47:57.498Z,100063.34
2023-03-18T14:51:00.277Z,100065.84
2023-03-18T14:53:53.228Z,100057.78
2023-03-18T14:56:35.599Z,100060.47
2023-03-18T14:59:06.882Z,100056.44
2023-03-18T15:01:53.940Z,100060.59
2023-03-18T15:04:43.997Z,100058.25
2023-03-18T15:07:49.616Z,100051.16
2023-03-18T15:10:41.437Z,100051.81
2023-03-18T15:13:19.780Z,100047.66
2023-03-18T15:16:06.774Z,100049.91
2023-03-18T15:18:53.136Z,100055.84
2023-03-18T15:21:57.154Z,100047.91
2023-03-18T15:24:50.976Z,100052.81
2023-03-18T15:27:32.059Z,100050.75
2023-03-18T15:30:42.448Z,100050.59
2023-03-18T15:33:37.224Z,100052.91
2023-03-18T15:36:25.709Z,100056.50
2023-03-18T15:39:08.642Z,100045.09
2023-03-18T15:41:47.311Z,100050.31
2023-03-18T15:44:40.999Z,100061.50
2023-03-18T15:47:29.837Z,100060.94
2023-03-18T15:50:36.926Z,100064.72
2023-03-18T15:53:33.837Z,100064.13
2023-03-18T15:56:49.593Z,100071.94
2023-03-18T15:59:35.850Z,100072.66
2023-03-18T16:02:40.375Z,100070.53
2023-03-18T16:05:33.936Z,100075.34
2023-03-18T16:08:15.237Z,100077.44
2023-03-18T16:10:58.888Z,100076.13
2023-03-18T16:13:39.556Z,100075.56
2023-03-18T16:16:31.662Z,100086.16
2023-03-18T16:19:27.686Z,100084.25
2023-03-18T16:22:14.106Z,100084.59
2023-03-18T16:25:00.457Z,100086.84
2023-03-18T16:27:48.927Z,100080.28
2023-03-18T16:30:44.569Z,100094.19
2023-03-18T16:33:29.910Z,100089.25
2023-03-18T16:36:09.667Z,100093.72
2023-03-18T16:39:02.904Z,100090.16
2023-03-18T16:41:44.138Z,100086.34
2023-03-18T16:44:28.639Z,100088.09
2023-03-18T16:47:09.649Z,100096.28
2023-03-18T16:49:44.506Z,100097.25
2023-03-18T16:52:29.688Z,100087.81
2023-03-18T16:55:11.771Z,100095.25
2023-03-18T16:57:55.475Z,100089.34
2023-03-18T17:00:33.500Z,100089.88
2023-03-18T17:03:30.098Z,100088.13
2023-03-18T17:06:12.894Z,100093.59
2023-03-18T17:08:56.813Z,100093.22
2023-03-18T17:11:42.832Z,100095.53
2023-03-18T17:15:18.056Z,100092.25
2023-03-18T17:18:05.599Z,100101.81
2023-03-18T17:20:52.527Z,100106.38
2023-03-18T17:23:42.093Z,100109.09
2023-03-18T17:26:31.636Z,100110.94
2023-03-18T17:29:10.829Z,100108.88
2023-03-18T17:31:51.859Z,100099.09
2023-03-18T17:34:30.711Z,100105.94
2023-03-18T17:37:06.784Z,100099.69
2023-03-18T17:39:42.123Z,100098.25
2023-03-18T17:42:41.380Z,100090.13
2023-03-18T17:45:48.742Z,100095.50
2023-03-18T17:48:38.400Z,100101.09
2023-03-18T17:51:23.900Z,100100.66
2023-03-18T17:54:13.528Z,100100.81
2023-03-18T17:56:54.630Z,100102.47
2023-03-18T17:59:33.342Z,100108.25
2023-03-18T18:02:29.177Z,100104.91
2023-03-18T18:05:04.937Z,100108.13
2023-03-18T18:07:50.765Z,100114.28
2023-03-18T18:10:38.609Z,100124.25
2023-03-18T18:13:19.854Z,100112.56
2023-03-18T18:15:59.785Z,100115.00
2023-03-18T18:18:50.015Z,100116.50
2023-03-18T18:21:34.061Z,100120.81
2023-03-18T18:24:21.557Z,100115.66
2023-03-18T18:27:04.639Z,100121.41
2023-03-18T18:29:53.635Z,100119.66
2023-03-18T18:32:36.076Z,100116.06
2023-03-18T18:35:25.405Z,100115.94
2023-03-18T18:38:13.088Z,100124.75
2023-03-18T18:40:51.269Z,100117.72
2023-03-18T18:43:43.598Z,100122.44
2023-03-18T18:46:21.174Z,100119.75
2023-03-18T18:49:02.656Z,100122.56
2023-03-18T18:52:04.415Z,100122.41
2023-03-18T18:54:47.317Z,100129.03
2023-03-18T18:57:48.502Z,100130.88
2023-03-18T19:00:32.116Z,100130.34
2023-03-18T19:03:22.987Z,100123.09
2023-03-18T19:06:02.152Z,100128.28
2023-03-18T19:08:45.662Z,100129.31
2023-03-18T19:11:27.251Z,100130.50
2023-03-18T19:14:29.205Z,100118.47
2023-03-18T19:17:19.303Z,100122.56
2023-03-18T19:20:05.525Z,100120.50
2023-03-18T19:22:53.664Z,100121.16
2023-03-18T19:25:37.770Z,100127.72
2023-03-18T19:29:01.377Z,100118.66
2023-03-18T19:31:44.866Z,100120.88
2023-03-18T19:34:32.279Z,100117.16
2023-03-18T19:37:06.938Z,100123.66
2023-03-18T19:39:57.679Z,100128.81
2023-03-18T19:42:43.968Z,100127.22
2023-03-18T19:45:21.651Z,100127.59
2023-03-18T19:48:07.143Z,100129.91
2023-03-18T19:50:53.025Z,100122.22
2023-03-18T19:53:33.801Z,100128.16
2023-03-18T19:56:26.633Z,100129.19
2023-03-18T19:59:07.336Z,100140.59
2023-03-18T20:01:48.118Z,100135.50
2023-03-18T20:04:34.933Z,100133.81
2023-03-18T20:07:16.754Z,100138.09
2023-03-18T20:09:58.114Z,100141.94
2023-03-18T20:12:45.390Z,100141.19
2023-03-18T20:15:28.923Z,100144.06
2023-03-18T20:18:15.584Z,100136.28
2023-03-18T20:20:58.840Z,100136.63
2023-03-18T20:23:44.984Z,100136.63
2023-03-18T20:26:23.779Z,100131.34
2023-03-18T20:29:04.633Z,100138.28
2023-03-18T20:31:39.642Z,100146.78
2023-03-18T20:34:29.145Z,100139.50
2023-03-18T20:37:11.938Z,100145.97
2023-03-18T20:39:58.680Z,100139.63
2023-03-18T20:42:48.921Z,100137.94
2023-03-18T20:45:27.522Z,100144.31
2023-03-18T20:48:11.085Z,100147.00
2023-03-18T20:50:55.422Z,100141.50
2023-03-18T20:53:47.175Z,100149.44
2023-03-18T20:56:38.755Z,100150.94
2023-03-18T20:59:15.800Z,100147.44
2023-03-18T21:01:59.313Z,100150.34
2023-03-18T21:04:46.721Z,100145.84
2023-03-18T21:07:36.172Z,100148.53
2023-03-18T21:10:16.219Z,100151.56
2023-03-18T21:12:58.467Z,100145.34
2023-03-18T21:15:41.392Z,100145.03
2023-03-18T21:18:26.232Z,100145.56
2023-03-18T21:21:06.180Z,100149.75
2023-03-18T21:23:54.609Z,100147.41
2023-03-18T21:26:41.982Z,100151.59
2023-03-18T21:29:25.545Z,100148.59
2023-03-18T21:32:13.114Z,100141.22
2023-03-18T21:34:54.863Z,100142.94
2023-03-18T21:37:36.314Z,100134.53
2023-03-18T21:40:17.083Z,100142.09
2023-03-18T21:43:00.367Z,100145.66
2023-03-18T21:45:44.322Z,100142.00
2023-03-18T21:48:33.467Z,100146.03
2023-03-18T21:51:44.309Z,100136.84
2023-03-18T21:54:24.281Z,100139.38
2023-03-18T21:57:07.488Z,100130.81
2023-03-18T21:59:49.878Z,100140.38
2023-03-18T22:02:43.213Z,100136.69
2023-03-18T22:05:25.880Z,100141.94
2023-03-18T22:08:17.976Z,100137.63
2023-03-18T22:11:24.989Z,100142.78
2023-03-18T22:14:07.984Z,100137.13
2023-03-18T22:16:51.519Z,100139.44
2023-03-18T22:19:34.740Z,100134.94
2023-03-18T22:22:32.238Z,100134.63
2023-03-18T22:25:42.125Z,100137.13
2023-03-18T22:28:31.324Z,100135.34
2023-03-18T22:31:21.400Z,100141.53
2023-03-18T22:34:04.762Z,100144.38
2023-03-18T22:36:48.307Z,100149.25
2023-03-18T22:39:34.076Z,100153.25
2023-03-18T22:42:27.457Z,100151.41
2023-03-18T22:45:09.951Z,100152.59
2023-03-18T22:47:52.789Z,100148.09
2023-03-18T22:50:38.348Z,100153.28
2023-03-18T22:53:21.324Z,100158.31
2023-03-18T22:56:16.189Z,100159.31
2023-03-18T22:58:57.095Z,100158.91
2023-03-18T23:01:40.752Z,100162.56
2023-03-18T23:04:31.978Z,100166.41
2023-03-18T23:07:33.061Z,100165.56
2023-03-18T23:10:25.298Z,100171.38
2023-03-18T23:13:16.485Z,100173.84
2023-03-18T23:16:02.266Z,100171.13
2023-03-18T23:18:39.660Z,100172.28
2023-03-18T23:21:35.387Z,100169.03
2023-03-18T23:24:18.948Z,100176.03
2023-03-18T23:26:59.828Z,100179.16
2023-03-18T23:29:43.713Z,100180.56
2023-03-18T23:32:25.369Z,100181.69
2023-03-18T23:35:10.769Z,100179.16
2023-03-18T23:37:47.746Z,100190.16
2023-03-18T23:40:26.757Z,100193.00
2023-03-18T23:43:11.964Z,100184.09
2023-03-18T23:45:53.074Z,100191.88
2023-03-18T23:48:42.237Z,100181.44
2023-03-18T23:51:26.361Z,100181.63
2023-03-18T23:54:09.845Z,100179.81
2023-03-18T23:56:50.352Z,100188.50
2023-03-18T23:59:25.907Z,100186.50
